createdAt,value
2023-04-20T00:01:07.023Z,100603.88
2023-04-20T00:03:35.721Z,100597.13
2023-04-20T00:06:03.458Z,100598.47
2023-04-20T00:08:30.807Z,100585.66
2023-04-20T00:10:57.826Z,100596.16
2023-04-20T00:13:26.324Z,100581.84
2023-04-20T00:15:53.460Z,100594.69
2023-04-20T00:18:20.689Z,100581.84
2023-04-20T00:20:47.734Z,100588.50
2023-04-20T00:23:14.768Z,100594.19
2023-04-20T00:25:41.872Z,100593.22
2023-04-20T00:28:08.993Z,100584.50
2023-04-20T00:30:36.278Z,100586.53
2023-04-20T00:33:04.911Z,100588.16
2023-04-20T00:35:32.208Z,100575.59
2023-04-20T00:37:59.305Z,100586.94
2023-04-20T00:40:26.350Z,100579.72
2023-04-20T00:42:53.406Z,100574.16
2023-04-20T00:45:22.361Z,100573.75
2023-04-20T00:47:49.497Z,100572.19
2023-04-20T00:50:17.341Z,100572.91
2023-04-20T00:52:45.655Z,100564.75
2023-04-20T00:55:12.911Z,100568.28
2023-04-20T00:57:41.726Z,100551.66
2023-04-20T01:00:10.723Z,100560.63
2023-04-20T01:02:37.967Z,100551.88
2023-04-20T01:05:09.397Z,100551.00
2023-04-20T01:07:37.637Z,100559.56
2023-04-20T01:10:08.894Z,100553.09
2023-04-20T01:12:39.686Z,100555.28
2023-04-20T01:15:08.562Z,100553.91
2023-04-20T01:17:39.993Z,100555.47
2023-04-20T01:20:17.839Z,100555.78
2023-04-20T01:22:49.690Z,100551.31
2023-04-20T01:25:17.875Z,100557.44
2023-04-20T01:27:47.324Z,100549.06
2023-04-20T01:30:14.689Z,100544.63
2023-04-20T01:32:42.007Z,100546.28
2023-04-20T01:35:10.151Z,100537.66
2023-04-20T01:37:39.373Z,100547.84
2023-04-20T01:40:10.040Z,100533.88
2023-04-20T01:42:37.402Z,100539.69
2023-04-20T01:45:06.474Z,100540.28
2023-04-20T01:47:35.838Z,100538.63
2023-04-20T01:50:03.301Z,100522.97
2023-04-20T01:52:32.900Z,100533.66
2023-04-20T01:55:00.078Z,100523.38
2023-04-20T01:57:27.273Z,100530.28
2023-04-20T01:59:54.356Z,100525.00
2023-04-20T02:02:21.643Z,100526.38
2023-04-20T02:04:48.713Z,100526.13
2023-04-20T02:07:16.052Z,100529.13
2023-04-20T02:09:43.143Z,100536.81
2023-04-20T02:12:10.429Z,100532.53
2023-04-20T02:14:41.181Z,100526.00
2023-04-20T02:17:11.005Z,100525.56
2023-04-20T02:19:38.491Z,100533.19
2023-04-20T02:22:05.758Z,100534.00
2023-04-20T02:24:33.145Z,100511.25
2023-04-20T02:27:01.292Z,100533.41
2023-04-20T02:29:28.456Z,100531.63
2023-04-20T02:31:55.563Z,100526.25
2023-04-20T02:34:22.618Z,100521.19
2023-04-20T02:36:49.637Z,100524.53
2023-04-20T02:39:17.036Z,100536.09
2023-04-20T02:41:44.603Z,100532.00
2023-04-20T02:44:12.559Z,100524.25
2023-04-20T02:46:40.024Z,100517.09
2023-04-20T02:49:08.367Z,100513.09
2023-04-20T02:51:40.772Z,100514.22
2023-04-20T02:54:08.004Z,100515.78
2023-04-20T02:56:35.770Z,100516.03
2023-04-20T02:59:07.448Z,100512.50
2023-04-20T03:01:37.596Z,100516.94
2023-04-20T03:04:16.554Z,100513.84
2023-04-20T03:06:51.264Z,100502.78
2023-04-20T03:09:23.916Z,100510.38
2023-04-20T03:12:18.611Z,100515.56
2023-04-20T03:15:07.474Z,100501.38
2023-04-20T03:17:50.122Z,100514.59
2023-04-20T03:20:18.274Z,100504.81
2023-04-20T03:22:45.668Z,100513.06
2023-04-20T03:25:13.017Z,100486.94
2023-04-20T03:27:55.391Z,100511.97
2023-04-20T03:30:22.577Z,100500.50
2023-04-20T03:32:55.759Z,100501.88
2023-04-20T03:35:22.965Z,100489.13
2023-04-20T03:37:50.017Z,100501.06
2023-04-20T03:40:17.209Z,100492.88
2023-04-20T03:42:44.345Z,100499.50
2023-04-20T03:45:12.068Z,100494.69
2023-04-20T03:47:39.404Z,100492.94
2023-04-20T03:50:07.154Z,100498.03
2023-04-20T03:52:34.548Z,100495.34
2023-04-20T03:55:05.537Z,100485.34
2023-04-20T03:57:33.702Z,100490.53
2023-04-20T04:00:03.864Z,100490.09
2023-04-20T04:02:46.416Z,100488.34
2023-04-20T04:05:17.778Z,100484.25
2023-04-20T04:07:44.866Z,100485.50
2023-04-20T04:10:13.460Z,100494.41
2023-04-20T04:12:40.724Z,100496.59
2023-04-20T04:15:08.702Z,100490.25
2023-04-20T04:17:42.241Z,100487.16
2023-04-20T04:20:10.474Z,100485.63
2023-04-20T04:22:38.021Z,100487.66
2023-04-20T04:25:23.624Z,100474.66
2023-04-20T04:27:51.517Z,100476.38
2023-04-20T04:30:20.083Z,100471.63
2023-04-20T04:32:49.268Z,100477.38
2023-04-20T04:35:17.239Z,100470.41
2023-04-20T04:37:44.395Z,100471.72
2023-04-20T04:40:11.873Z,100467.25
2023-04-20T04:42:39.626Z,100460.50
2023-04-20T04:45:10.490Z,100467.00
2023-04-20T04:47:43.351Z,100472.09
2023-04-20T04:50:11.224Z,100470.06
2023-04-20T04:52:38.365Z,100471.78
2023-04-20T04:55:09.186Z,100470.88
2023-04-20T04:57:38.769Z,100458.94
2023-04-20T05:00:11.716Z,100468.59
2023-04-20T05:02:39.317Z,100468.50
2023-04-20T05:05:09.941Z,100467.56
2023-04-20T05:07:38.598Z,100464.13
2023-04-20T05:10:07.116Z,100460.97
2023-04-20T05:12:34.624Z,100455.94
2023-04-20T05:15:01.678Z,100448.75
2023-04-20T05:17:31.972Z,100453.22
2023-04-20T05:19:59.135Z,100451.22
2023-04-20T05:22:26.245Z,100445.91
2023-04-20T05:24:53.437Z,100445.47
2023-04-20T05:27:21.018Z,100443.22
2023-04-20T05:29:48.086Z,100449.25
2023-04-20T05:32:15.091Z,100431.97
2023-04-20T05:34:42.162Z,100441.06
2023-04-20T05:37:09.624Z,100438.75
2023-04-20T05:39:36.713Z,100438.75
2023-04-20T05:42:03.918Z,100441.06
2023-04-20T05:44:31.394Z,100436.44
2023-04-20T05:46:58.518Z,100439.78
2023-04-20T05:49:26.270Z,100437.56
2023-04-20T05:51:53.336Z,100430.81
2023-04-20T05:54:20.568Z,100433.13
2023-04-20T05:56:47.619Z,100429.16
2023-04-20T05:59:15.764Z,100436.09
2023-04-20T06:01:43.244Z,100434.44
2023-04-20T06:04:10.577Z,100433.44
2023-04-20T06:06:37.834Z,100440.72
2023-04-20T06:09:05.269Z,100442.41
2023-04-20T06:11:32.609Z,100434.28
2023-04-20T06:13:59.726Z,100432.38
2023-04-20T06:16:26.961Z,100433.91
2023-04-20T06:18:54.268Z,100417.09
2023-04-20T06:21:21.569Z,100430.38
2023-04-20T06:23:49.180Z,100424.91
2023-04-20T06:26:16.603Z,100418.31
2023-04-20T06:28:43.733Z,100429.25
2023-04-20T06:31:10.856Z,100417.34
2023-04-20T06:33:37.904Z,100417.28
2023-04-20T06:36:08.336Z,100417.63
2023-04-20T06:38:35.706Z,100411.44
2023-04-20T06:41:02.980Z,100415.69
2023-04-20T06:43:30.968Z,100414.81
2023-04-20T06:45:58.115Z,100412.81
2023-04-20T06:48:32.163Z,100396.25
2023-04-20T06:51:01.478Z,100411.66
2023-04-20T06:53:28.716Z,100411.84
2023-04-20T06:55:56.159Z,100400.13
2023-04-20T06:58:23.366Z,100405.97
2023-04-20T07:00:50.663Z,100402.19
2023-04-20T07:03:19.348Z,100391.41
2023-04-20T07:05:47.026Z,100391.22
2023-04-20T07:08:16.137Z,100384.72
2023-04-20T07:10:43.701Z,100389.69
2023-04-20T07:13:10.954Z,100388.75
2023-04-20T07:15:38.044Z,100387.28
2023-04-20T07:18:05.284Z,100380.50
2023-04-20T07:20:32.692Z,100381.06
2023-04-20T07:22:59.801Z,100381.25
2023-04-20T07:25:27.452Z,100362.28
2023-04-20T07:27:54.557Z,100375.13
2023-04-20T07:30:21.714Z,100362.81
2023-04-20T07:32:49.386Z,100380.31
2023-04-20T07:35:16.930Z,100367.09
2023-04-20T07:37:44.176Z,100377.53
2023-04-20T07:40:11.494Z,100368.22
2023-04-20T07:42:38.642Z,100368.34
2023-04-20T07:45:07.184Z,100374.22
2023-04-20T07:47:35.606Z,100358.63
2023-04-20T07:50:03.946Z,100359.00
2023-04-20T07:52:34.662Z,100355.09
2023-04-20T07:55:02.444Z,100362.66
2023-04-20T07:57:35.658Z,100352.97
2023-04-20T08:00:05.736Z,100363.97
2023-04-20T08:02:41.353Z,100345.56
2023-04-20T08:05:10.602Z,100353.28
2023-04-20T08:07:38.665Z,100349.81
2023-04-20T08:10:07.585Z,100354.19
2023-04-20T08:12:36.410Z,100344.28
2023-04-20T08:15:06.569Z,100342.78
2023-04-20T08:17:34.552Z,100345.84
2023-04-20T08:20:03.133Z,100323.75
2023-04-20T08:22:33.973Z,100318.47
2023-04-20T08:25:01.564Z,100307.53
2023-04-20T08:27:34.368Z,100330.97
2023-04-20T08:30:03.921Z,100333.50
2023-04-20T08:32:36.704Z,100336.91
2023-04-20T08:35:05.240Z,100327.53
2023-04-20T08:37:35.925Z,100319.09
2023-04-20T08:40:04.238Z,100330.28
2023-04-20T08:42:33.889Z,100326.78
2023-04-20T08:45:01.491Z,100322.47
2023-04-20T08:47:35.989Z,100322.72
2023-04-20T08:50:04.470Z,100323.22
2023-04-20T08:52:35.679Z,100321.72
2023-04-20T08:55:03.462Z,100317.91
2023-04-20T08:57:33.386Z,100321.25
2023-04-20T09:00:00.839Z,100315.66
2023-04-20T09:02:28.068Z,100319.16
2023-04-20T09:05:02.543Z,100313.13
2023-04-20T09:07:31.639Z,100311.88
2023-04-20T09:10:00.412Z,100316.97
2023-04-20T09:12:28.325Z,100317.44
2023-04-20T09:14:56.101Z,100308.94
2023-04-20T09:17:34.638Z,100310.28
2023-04-20T09:20:01.973Z,100311.09
2023-04-20T09:22:33.906Z,100299.44
2023-04-20T09:25:12.093Z,100303.75
2023-04-20T09:27:39.115Z,100308.47
2023-04-20T09:30:07.985Z,100299.03
2023-04-20T09:32:35.941Z,100304.25
2023-04-20T09:35:04.115Z,100294.09
2023-04-20T09:37:31.430Z,100294.19
2023-04-20T09:40:00.915Z,100300.00
2023-04-20T09:42:32.293Z,100285.09
2023-04-20T09:45:00.645Z,100294.59
2023-04-20T09:47:29.975Z,100289.63
2023-04-20T09:50:00.117Z,100289.59
2023-04-20T09:52:27.965Z,100288.69
2023-04-20T09:54:55.326Z,100285.00
2023-04-20T09:57:23.474Z,100274.69
2023-04-20T09:59:53.296Z,100253.53
2023-04-20T10:02:20.738Z,100264.06
2023-04-20T10:05:07.546Z,100261.13
2023-04-20T10:07:35.336Z,100260.50
2023-04-20T10:10:15.887Z,100261.91
2023-04-20T10:12:48.805Z,100255.94
2023-04-20T10:15:16.004Z,100255.84
2023-04-20T10:17:43.712Z,100260.19
2023-04-20T10:20:25.481Z,100263.50
2023-04-20T10:22:53.399Z,100264.03
2023-04-20T10:25:24.451Z,100256.78
2023-04-20T10:27:57.506Z,100242.75
2023-04-20T10:30:26.992Z,100247.75
2023-04-20T10:33:08.589Z,100250.66
2023-04-20T10:35:46.992Z,100237.34
2023-04-20T10:38:14.341Z,100243.50
2023-04-20T10:40:41.430Z,100241.56
2023-04-20T10:43:28.716Z,100246.78
2023-04-20T10:45:55.890Z,100241.66
2023-04-20T10:48:23.183Z,100235.66
2023-04-20T10:50:50.251Z,100239.09
2023-04-20T10:53:19.613Z,100238.94
2023-04-20T10:55:46.830Z,100218.44
2023-04-20T10:58:24.210Z,100225.28
2023-04-20T11:01:02.308Z,100220.72
2023-04-20T11:03:31.362Z,100214.75
2023-04-20T11:06:01.844Z,100219.47
2023-04-20T11:08:43.427Z,100216.19
2023-04-20T11:11:27.828Z,100214.78
2023-04-20T11:14:08.704Z,100208.78
2023-04-20T11:16:48.632Z,100201.78
2023-04-20T11:19:26.691Z,100209.53
2023-04-20T11:21:54.583Z,100192.66
2023-04-20T11:24:23.933Z,100196.06
2023-04-20T11:26:53.370Z,100191.94
2023-04-20T11:29:33.313Z,100183.59
2023-04-20T11:32:08.321Z,100186.44
2023-04-20T11:34:37.586Z,100190.06
2023-04-20T11:37:10.217Z,100183.13
2023-04-20T11:39:38.010Z,100176.41
2023-04-20T11:42:06.217Z,100186.00
2023-04-20T11:44:34.469Z,100179.25
2023-04-20T11:47:02.031Z,100182.97
2023-04-20T11:49:29.596Z,100187.47
2023-04-20T11:51:56.641Z,100193.03
2023-04-20T11:54:24.392Z,100187.09
2023-04-20T11:56:52.128Z,100159.84
2023-04-20T11:59:20.644Z,100159.00
2023-04-20T12:01:48.452Z,100157.78
2023-04-20T12:04:16.371Z,100172.44
2023-04-20T12:06:44.968Z,100168.31
2023-04-20T12:09:13.560Z,100160.13
2023-04-20T12:11:41.511Z,100167.53
2023-04-20T12:14:08.832Z,100164.66
2023-04-20T12:16:36.133Z,100163.84
2023-04-20T12:19:03.508Z,100161.97
2023-04-20T12:21:32.050Z,100156.56
2023-04-20T12:23:59.144Z,100140.13
2023-04-20T12:26:34.897Z,100132.34
2023-04-20T12:29:10.846Z,100128.66
2023-04-20T12:31:38.178Z,100134.78
2023-04-20T12:34:05.570Z,100135.53
2023-04-20T12:36:35.056Z,100118.50
2023-04-20T12:39:05.495Z,100130.84
2023-04-20T12:41:33.464Z,100133.47
2023-04-20T12:44:02.616Z,100130.75
2023-04-20T12:46:31.646Z,100124.13
2023-04-20T12:48:58.788Z,100107.91
2023-04-20T12:51:25.879Z,100112.91
2023-04-20T12:53:53.162Z,100106.72
2023-04-20T12:56:20.224Z,100115.31
2023-04-20T12:58:47.494Z,100112.31
2023-04-20T13:01:17.398Z,100109.41
2023-04-20T13:03:44.646Z,100101.84
2023-04-20T13:06:14.293Z,100094.84
2023-04-20T13:08:41.788Z,100107.38
2023-04-20T13:11:12.242Z,100098.88
2023-04-20T13:13:39.386Z,100098.16
2023-04-20T13:16:06.524Z,100095.88
2023-04-20T13:18:34.235Z,100093.59
2023-04-20T13:21:01.696Z,100102.25
2023-04-20T13:23:29.039Z,100091.38
2023-04-20T13:25:59.297Z,100077.22
2023-04-20T13:28:26.412Z,100068.59
2023-04-20T13:31:00.259Z,100066.53
2023-04-20T13:33:30.425Z,100079.25
2023-04-20T13:35:57.516Z,100080.47
2023-04-20T13:38:24.708Z,100073.09
2023-04-20T13:40:57.245Z,100060.31
2023-04-20T13:43:25.338Z,100075.09
2023-04-20T13:45:52.560Z,100075.50
2023-04-20T13:48:19.800Z,100073.28
2023-04-20T13:50:47.565Z,100060.75
2023-04-20T13:53:14.719Z,100070.19
2023-04-20T13:55:41.786Z,100077.56
2023-04-20T13:58:08.893Z,100074.75
2023-04-20T14:00:36.119Z,100074.50
2023-04-20T14:03:03.527Z,100068.56
2023-04-20T14:05:30.880Z,100081.06
2023-04-20T14:08:01.722Z,100070.03
2023-04-20T14:10:29.621Z,100068.34
2023-04-20T14:12:57.442Z,100073.06
2023-04-20T14:15:24.693Z,100064.81
2023-04-20T14:17:52.907Z,100080.78
2023-04-20T14:20:20.349Z,100070.56
2023-04-20T14:22:47.479Z,100081.34
2023-04-20T14:25:14.563Z,100068.50
2023-04-20T14:27:41.626Z,100085.81
2023-04-20T14:30:09.447Z,100089.16
2023-04-20T14:32:36.856Z,100085.31
2023-04-20T14:35:05.528Z,100084.88
2023-04-20T14:37:33.517Z,100084.06
2023-04-20T14:40:00.648Z,100082.88
2023-04-20T14:42:27.743Z,100088.53
2023-04-20T14:44:54.863Z,100092.88
2023-04-20T14:47:22.034Z,100082.44
2023-04-20T14:49:49.111Z,100088.22
2023-04-20T14:52:16.190Z,100091.19
2023-04-20T14:54:43.341Z,100090.06
2023-04-20T14:57:10.550Z,100084.75
2023-04-20T14:59:37.619Z,100095.16
2023-04-20T15:02:05.938Z,100057.41
2023-04-20T15:04:33.816Z,100080.78
2023-04-20T15:07:01.186Z,100075.09
2023-04-20T15:09:28.415Z,100068.22
2023-04-20T15:11:56.755Z,100076.28
2023-04-20T15:14:23.811Z,100074.25
2023-04-20T15:16:54.149Z,100071.91
2023-04-20T15:19:22.847Z,100079.59
2023-04-20T15:21:50.656Z,100075.50
2023-04-20T15:24:18.149Z,100077.16
2023-04-20T15:26:45.682Z,100080.16
2023-04-20T15:29:12.873Z,100073.34
2023-04-20T15:31:40.570Z,100075.22
2023-04-20T15:34:07.861Z,100071.28
2023-04-20T15:36:34.946Z,100071.38
2023-04-20T15:39:02.403Z,100059.25
2023-04-20T15:41:29.596Z,100070.25
2023-04-20T15:43:56.708Z,100076.75
2023-04-20T15:46:25.952Z,100074.38
2023-04-20T15:48:53.246Z,100075.59
2023-04-20T15:51:20.373Z,100071.81
2023-04-20T15:53:51.370Z,100076.31
2023-04-20T15:56:18.912Z,100071.16
2023-04-20T15:58:46.374Z,100077.66
2023-04-20T16:01:13.527Z,100079.56
2023-04-20T16:03:41.397Z,100076.53
2023-04-20T16:06:10.487Z,100070.19
2023-04-20T16:08:37.947Z,100075.72
2023-04-20T16:11:07.904Z,100075.59
2023-04-20T16:13:36.533Z,100077.16
2023-04-20T16:16:03.958Z,100071.34
2023-04-20T16:18:32.339Z,100073.56
2023-04-20T16:20:59.657Z,100064.03
2023-04-20T16:23:26.848Z,100075.00
2023-04-20T16:25:53.986Z,100070.19
2023-04-20T16:28:21.091Z,100068.03
2023-04-20T16:30:48.208Z,100067.00
2023-04-20T16:33:15.858Z,100059.28
2023-04-20T16:35:43.017Z,100055.25
2023-04-20T16:38:11.070Z,100064.56
2023-04-20T16:40:38.196Z,100065.59
2023-04-20T16:43:05.304Z,100048.25
2023-04-20T16:45:33.529Z,100059.03
2023-04-20T16:48:00.883Z,100068.41
2023-04-20T16:50:46.871Z,100054.53
2023-04-20T16:53:14.000Z,100056.00
2023-04-20T16:55:41.138Z,100057.16
2023-04-20T16:58:08.311Z,100057.72
2023-04-20T17:00:35.625Z,100063.22
2023-04-20T17:03:06.946Z,100063.66
2023-04-20T17:05:40.266Z,100060.19
2023-04-20T17:08:09.064Z,100046.50
2023-04-20T17:10:37.480Z,100063.84
2023-04-20T17:13:04.637Z,100069.00
2023-04-20T17:15:31.865Z,100067.28
2023-04-20T17:17:59.666Z,100069.50
2023-04-20T17:20:26.907Z,100064.28
2023-04-20T17:22:54.076Z,100067.53
2023-04-20T17:25:21.308Z,100054.34
2023-04-20T17:27:48.523Z,100063.94
2023-04-20T17:30:15.804Z,100049.03
2023-04-20T17:32:43.506Z,100064.59
2023-04-20T17:35:11.003Z,100068.28
2023-04-20T17:37:38.212Z,100064.81
2023-04-20T17:40:06.427Z,100068.13
2023-04-20T17:42:33.592Z,100066.81
2023-04-20T17:45:00.926Z,100046.59
2023-04-20T17:47:28.691Z,100064.63
2023-04-20T17:49:56.368Z,100066.28
2023-04-20T17:52:25.189Z,100057.66
2023-04-20T17:54:53.971Z,100062.56
2023-04-20T17:57:21.204Z,100068.22
2023-04-20T17:59:48.304Z,100070.72
2023-04-20T18:02:16.047Z,100067.88
2023-04-20T18:04:43.451Z,100075.03
2023-04-20T18:07:13.222Z,100075.56
2023-04-20T18:09:40.393Z,100046.28
2023-04-20T18:12:13.339Z,100068.91
2023-04-20T18:14:40.925Z,100072.09
2023-04-20T18:17:08.691Z,100077.78
2023-04-20T18:19:35.822Z,100079.00
2023-04-20T18:22:03.123Z,100071.56
2023-04-20T18:24:30.334Z,100064.88
2023-04-20T18:26:57.522Z,100062.84
2023-04-20T18:29:24.663Z,100074.31
2023-04-20T18:31:53.584Z,100043.34
2023-04-20T18:34:20.967Z,100067.97
2023-04-20T18:36:48.157Z,100068.06
2023-04-20T18:39:16.062Z,100067.16
2023-04-20T18:41:43.226Z,100059.09
2023-04-20T18:44:10.461Z,100073.53
2023-04-20T18:46:38.948Z,100065.31
2023-04-20T18:49:06.328Z,100065.22
2023-04-20T18:51:34.267Z,100044.59
2023-04-20T18:54:01.393Z,100062.41
2023-04-20T18:56:28.542Z,100069.81
2023-04-20T18:58:57.961Z,100064.84
2023-04-20T19:01:25.325Z,100069.88
2023-04-20T19:03:52.783Z,100069.97
2023-04-20T19:06:20.159Z,100062.13
2023-04-20T19:08:47.367Z,100070.78
2023-04-20T19:11:14.464Z,100065.13
2023-04-20T19:13:44.636Z,100068.56
2023-04-20T19:16:12.969Z,100055.34
2023-04-20T19:18:40.279Z,100064.78
2023-04-20T19:21:07.503Z,100069.28
2023-04-20T19:23:36.359Z,100060.31
2023-04-20T19:26:04.284Z,100058.56
2023-04-20T19:28:31.593Z,100073.31
2023-04-20T19:30:59.714Z,100075.41
2023-04-20T19:33:27.107Z,100075.97
2023-04-20T19:35:54.328Z,100078.63
2023-04-20T19:38:24.499Z,100069.06
2023-04-20T19:40:51.678Z,100076.38
2023-04-20T19:43:18.894Z,100065.16
2023-04-20T19:45:46.077Z,100055.72
2023-04-20T19:48:13.258Z,100074.84
2023-04-20T19:50:40.805Z,100076.81
2023-04-20T19:53:08.048Z,100073.84
2023-04-20T19:55:35.095Z,100065.28
2023-04-20T19:58:02.196Z,100061.63
2023-04-20T20:00:29.259Z,100076.22
2023-04-20T20:02:56.481Z,100069.28
2023-04-20T20:05:23.774Z,100066.97
2023-04-20T20:07:52.278Z,100063.03
2023-04-20T20:10:19.483Z,100072.91
2023-04-20T20:12:47.207Z,100070.09
2023-04-20T20:15:14.290Z,100083.63
2023-04-20T20:17:41.614Z,100085.34
2023-04-20T20:20:09.258Z,100088.22
2023-04-20T20:22:36.390Z,100083.28
2023-04-20T20:25:04.041Z,100078.34
2023-04-20T20:27:31.761Z,100062.13
2023-04-20T20:29:58.853Z,100088.59
2023-04-20T20:32:26.006Z,100072.75
2023-04-20T20:34:53.415Z,100081.38
2023-04-20T20:37:21.409Z,100074.16
2023-04-20T20:39:48.461Z,100077.63
2023-04-20T20:42:15.803Z,100076.47
2023-04-20T20:44:43.082Z,100062.38
2023-04-20T20:47:10.392Z,100069.50
2023-04-20T20:49:37.486Z,100070.50
2023-04-20T20:52:04.688Z,100065.88
2023-04-20T20:54:31.768Z,100060.94
2023-04-20T20:56:58.965Z,100044.22
2023-04-20T20:59:26.226Z,100053.66
2023-04-20T21:01:53.849Z,100052.38
2023-04-20T21:04:21.160Z,100061.94
2023-04-20T21:06:48.273Z,100061.22
2023-04-20T21:09:15.669Z,100060.22
2023-04-20T21:11:42.821Z,100038.38
2023-04-20T21:14:09.976Z,100055.63
2023-04-20T21:16:37.244Z,100054.28
2023-04-20T21:19:04.397Z,100048.16
2023-04-20T21:21:32.928Z,100043.38
2023-04-20T21:24:00.088Z,100046.19
2023-04-20T21:26:27.234Z,100045.13
2023-04-20T21:28:54.377Z,100055.03
2023-04-20T21:31:21.503Z,100040.53
2023-04-20T21:33:48.627Z,100050.84
2023-04-20T21:36:15.757Z,100059.09
2023-04-20T21:38:42.895Z,100053.13
2023-04-20T21:41:09.987Z,100052.97
2023-04-20T21:43:37.090Z,100054.47
2023-04-20T21:46:04.345Z,100043.53
2023-04-20T21:48:31.508Z,100049.50
2023-04-20T21:50:58.720Z,100043.56
2023-04-20T21:53:25.876Z,100042.06
2023-04-20T21:55:52.972Z,100045.22
2023-04-20T21:58:20.132Z,100045.22
2023-04-20T22:00:47.320Z,100050.50
2023-04-20T22:03:14.592Z,100048.19
2023-04-20T22:05:41.887Z,100056.13
2023-04-20T22:08:09.090Z,100040.41
2023-04-20T22:10:36.280Z,100041.59
2023-04-20T22:13:03.533Z,100025.06
2023-04-20T22:15:30.757Z,100045.31
2023-04-20T22:18:00.265Z,100041.50
2023-04-20T22:20:27.459Z,100047.13
2023-04-20T22:22:54.598Z,100037.22
2023-04-20T22:25:21.727Z,100029.81
2023-04-20T22:27:48.816Z,100030.00
2023-04-20T22:30:16.263Z,100028.84
2023-04-20T22:32:43.474Z,100024.56
2023-04-20T22:35:10.618Z,100043.84
2023-04-20T22:37:37.808Z,100038.88
2023-04-20T22:40:08.698Z,100025.66
2023-04-20T22:42:38.590Z,100022.03
2023-04-20T22:45:06.354Z,99998.41
2023-04-20T22:47:34.035Z,100022.69
2023-04-20T22:50:01.855Z,100022.03
2023-04-20T22:52:32.111Z,100017.19
2023-04-20T22:55:00.425Z,100018.19
2023-04-20T22:57:27.606Z,100010.97
2023-04-20T22:59:54.685Z,100010.47
2023-04-20T23:02:21.992Z,100009.94
2023-04-20T23:04:49.248Z,99993.59
2023-04-20T23:07:17.628Z,100011.09
2023-04-20T23:09:44.724Z,100005.19
2023-04-20T23:12:12.388Z,100020.66
2023-04-20T23:14:42.495Z,100006.19
2023-04-20T23:17:10.454Z,100011.00
2023-04-20T23:19:38.693Z,100012.03
2023-04-20T23:22:09.007Z,100007.91
2023-04-20T23:24:36.224Z,100009.44
2023-04-20T23:27:03.698Z,100005.13
2023-04-20T23:29:30.857Z,100004.47
2023-04-20T23:31:58.012Z,99986.59
2023-04-20T23:34:25.123Z,100007.13
2023-04-20T23:36:53.961Z,99995.91
2023-04-20T23:39:21.534Z,99985.34
2023-04-20T23:41:48.832Z,99994.78
2023-04-20T23:44:16.084Z,99997.56
2023-04-20T23:46:43.269Z,99997.53
2023-04-20T23:49:10.390Z,100003.09
2023-04-20T23:51:37.540Z,99999.09
2023-04-20T23:54:04.716Z,99998.22
2023-04-20T23:56:31.837Z,99981.56
2023-04-20T23:58:59.858Z,99983.91
